Time;durP1;ratioP1;P1;durP2;ratioP2;P2;SDS_P1;SDS_P2;PMS_P1;PMS_P2;Temp;Humidity;BMP_temperature;BMP_pressure;BME280_temperature;BME280_humidity;BME280_pressure;Samples;Min_cycle;Max_cycle;Signal;HPM_P1;HPM_P2
2023/10/09 00:04:45;;;;;;;;;;;;;;;-144.32;100.00;68061.97;10266740;28;20441;-78
2023/10/09 00:09:48;;;;;;;;;;;;;;;-144.32;100.00;68061.97;10260884;28;20725;-79
2023/10/09 00:14:50;;;;;;;;;;;;;;;-144.32;100.00;68061.97;10278353;28;19965;-77
2023/10/09 00:19:59;;;;;;;;;;;;;;;-144.32;100.00;68061.97;10264076;28;20674;-79
2023/10/09 00:25:12;;;;;;;;;;;;;;;-144.32;100.00;68061.97;10278135;28;19926;-78
2023/10/09 00:30:17;;;;;;;;;;;;;;;-144.32;100.00;68061.97;10270457;28;20003;-77
2023/10/09 00:35:39;;;;;;;;;;;;;;;-144.32;100.00;68061.97;10282525;28;19929;-81
2023/10/09 00:40:46;;;;;;;;;;;;;;;-144.32;100.00;68061.97;10270885;28;19926;-81
2023/10/09 00:45:47;;;;;;;;;;;;;;;-144.32;100.00;68061.97;10261363;28;20605;-79
2023/10/09 00:50:52;;;;;;;;;;;;;;;-144.32;100.00;68061.97;10263906;28;19926;-79
2023/10/09 00:55:56;;;;;;;;;;;;;;;-144.32;100.00;68061.97;10246075;28;19980;-82
2023/10/09 01:00:59;;;;;;;;;;;;;;;-144.32;100.00;68061.97;10288986;28;20442;-81
2023/10/09 01:06:16;;;;;;;;;;;;;;;-144.32;100.00;68061.97;10249513;28;20306;-80
2023/10/09 01:11:29;;;;;;;;;;;;;;;-144.32;100.00;68061.97;10281451;28;19999;-80
2023/10/09 01:16:31;;;;;;;;;;;;;;;-144.32;100.00;68061.97;10285081;28;19937;-78
2023/10/09 01:21:31;;;;;;;;;;;;;;;-144.32;100.00;68061.97;10257764;28;20000;-82
2023/10/09 01:26:39;;;;;;;;;;;;;;;-144.32;100.00;68061.97;10280574;28;19960;-80
2023/10/09 01:32:00;;;;;;;;;;;;;;;-144.32;100.00;68061.97;10279118;28;19926;-78
2023/10/09 01:37:05;;;;;;;;;;;;;;;-144.32;100.00;68061.97;10295672;28;19953;-84
2023/10/09 01:42:06;;;;;;;;;;;;;;;-144.32;100.00;68061.97;10285343;28;19948;-79
2023/10/09 01:47:13;;;;;;;;;;;;;;;-144.32;100.00;68061.97;10276314;28;19941;-83
2023/10/09 01:52:21;;;;;;;;;;;;;;;-144.32;100.00;68061.97;10254505;28;19972;-81
2023/10/09 01:57:22;;;;;;;;;;;;;;;-144.32;100.00;68061.97;10266836;28;19925;-78
2023/10/09 02:02:26;;;;;;;;;;;;;;;-144.32;100.00;68061.97;10277050;28;19980;-79
2023/10/09 02:07:27;;;;;;;;;;;;;;;-144.32;100.00;68061.97;10286626;28;19934;-81
2023/10/09 02:12:33;;;;;;;;;;;;;;;-144.32;100.00;68061.97;10278192;28;19930;-80
2023/10/09 02:17:34;;;;;;;;;;;;;;;-144.32;100.00;68061.97;10283762;28;19945;-85
2023/10/09 02:22:34;;;;;;;;;;;;;;;-144.32;100.00;68061.97;10326569;28;19907;-82
2023/10/09 02:27:47;;;;;;;;;;;;;;;-144.32;100.00;68061.97;10304176;28;20029;-81
2023/10/09 02:32:52;;;;;;;;;;;;;;;-144.32;100.00;68061.97;10271879;28;20020;-80
2023/10/09 02:37:53;;;;;;;;;;;;;;;-144.32;100.00;68061.97;10281689;28;19930;-82
2023/10/09 02:42:53;;;;;;;;;;;;;;;-144.32;100.00;68061.97;10280308;28;19922;-81
2023/10/09 02:47:55;;;;;;;;;;;;;;;-144.32;100.00;68061.97;10252119;28;19960;-79
2023/10/09 02:53:08;;;;;;;;;;;;;;;-144.32;100.00;68061.97;10250027;28;19976;-81
2023/10/09 02:58:20;;;;;;;;;;;;;;;-144.32;100.00;68061.97;10273039;28;19958;-81
2023/10/09 03:03:20;;;;;;;;;;;;;;;-144.32;100.00;68061.97;10286449;28;19925;-81
2023/10/09 03:08:21;;;;;;;;;;;;;;;-144.32;100.00;68061.97;10285309;28;19928;-78
2023/10/09 03:13:22;;;;;;;;;;;;;;;-144.32;100.00;68061.97;10274450;28;20389;-81
2023/10/09 03:18:22;;;;;;;;;;;;;;;-144.32;100.00;68061.97;10255408;28;20378;-78
2023/10/09 03:23:22;;;;;;;;;;;;;;;-144.32;100.00;68061.97;10246708;28;20621;-78
2023/10/09 03:28:23;;;;;;;;;;;;;;;-144.32;100.00;68061.97;10251368;28;19925;-79
2023/10/09 03:33:27;;;;;;;;;;;;;;;-144.32;100.00;68061.97;10275671;28;19917;-80
2023/10/09 03:38:34;;;;;;;;;;;;;;;-144.32;100.00;68061.97;10250555;28;20272;-80
2023/10/09 03:43:40;;;;;;;;;;;;;;;-144.32;100.00;68061.97;10261953;28;19926;-82
2023/10/09 03:48:43;;;;;;;;;;;;;;;-144.32;100.00;68061.97;10260545;28;19922;-79
2023/10/09 03:53:43;;;;;;;;;;;;;;;-144.32;100.00;68061.97;10240732;28;19934;-79
2023/10/09 03:58:45;;;;;;;;;;;;;;;-144.32;100.00;68061.97;10236540;28;19926;-82
2023/10/09 04:03:46;;;;;;;;;;;;;;;-144.32;100.00;68061.97;10237786;28;19930;-79
2023/10/09 04:08:51;;;;;;;;;;;;;;;-144.32;100.00;68061.97;10321840;28;19926;-84
2023/10/09 04:13:59;;;;;;;;;;;;;;;-144.32;100.00;68061.97;10320631;28;19926;-83
2023/10/09 04:19:22;;;;;;;;;;;;;;;-144.32;100.00;68061.97;10249289;28;19934;-86
2023/10/09 04:24:25;;;;;;;;;;;;;;;-144.32;100.00;68061.97;10228858;28;19933;-82
2023/10/09 04:29:38;;;;;;;;;;;;;;;-144.32;100.00;68061.97;10264228;28;19919;-89
2023/10/09 04:34:48;;;;;;;;;;;;;;;-144.32;100.00;68061.97;10220945;28;20006;-81
2023/10/09 04:39:49;;;;;;;;;;;;;;;-144.32;100.00;68061.97;10227129;28;20627;-81
2023/10/09 04:45:18;;;;;;;;;;;;;;;-144.32;100.00;68061.97;10235502;28;19953;-79
2023/10/09 04:55:24;;;;;;;;;;;;;;;-144.32;100.00;68061.97;10214441;28;19927;-84
2023/10/09 05:10:53;;;;;;;;;;;;;;;-144.32;100.00;68061.97;10224384;28;19943;-81
2023/10/09 05:15:57;;;;;;;;;;;;;;;-144.32;100.00;68061.97;10215624;28;20052;-81
2023/10/09 05:21:28;;;;;;;;;;;;;;;-144.32;100.00;68061.97;10221537;28;19923;-85
2023/10/09 05:32:29;;;;;;;;;;;;;;;-144.32;100.00;68061.97;10255025;28;19992;-82
2023/10/09 05:37:24;;;;;;;;;;;;;;;-144.32;100.00;68061.97;10225325;28;20017;-79
2023/10/09 05:42:42;;;;;;;;;;;;;;;-144.32;100.00;68061.97;10213593;28;19926;-80
2023/10/09 05:53:17;;;;;;;;;;;;;;;-144.32;100.00;68061.97;10206192;28;20373;-81
2023/10/09 06:03:48;;;;;;;;;;;;;;;-144.32;100.00;68061.97;10215642;28;19931;-79
2023/10/09 06:09:11;;;;;;;;;;;;;;;-144.32;100.00;68061.97;10216661;28;19993;-79
2023/10/09 06:19:12;;;;;;;;;;;;;;;-144.32;100.00;68061.97;10203446;28;19926;-79
2023/10/09 06:24:15;;;;;;;;;;;;;;;-144.32;100.00;68061.97;10218145;28;19978;-79
2023/10/09 06:29:17;;;;;;;;;;;;;;;-144.32;100.00;68061.97;10208775;28;19939;-79
2023/10/09 06:34:18;;;;;;;;;;;;;;;-144.32;100.00;68061.97;10240475;23;19930;-81
2023/10/09 06:44:54;;;;;;;;;;;;;;;-144.32;100.00;68061.97;10277571;28;20985;-80
2023/10/09 06:55:32;;;;;;;;;;;;;;;-144.32;100.00;68061.97;10291017;28;19926;-80
2023/10/09 07:06:23;;;;;;;;;;;;;;;-144.32;100.00;68061.97;10300512;28;19929;-81
2023/10/09 07:17:01;;;;;;;;;;;;;;;-144.32;100.00;68061.97;10266441;28;19943;-83
2023/10/09 07:22:39;;;;;;;;;;;;;;;-144.32;100.00;68061.97;10293199;28;20017;-81
2023/10/09 07:27:48;;;;;;;;;;;;;;;-144.32;100.00;68061.97;10307430;28;19932;-80
2023/10/09 07:32:52;;;;;;;;;;;;;;;-144.32;100.00;68061.97;10321103;28;20351;-81
2023/10/09 07:37:56;;;;;;;;;;;;;;;-144.32;100.00;68061.97;10273774;28;19942;-82
2023/10/09 07:43:04;;;;;;;;;;;;;;;-144.32;100.00;68061.97;10268264;28;19933;-80
2023/10/09 07:48:14;;;;;;;;;;;;;;;-144.32;100.00;68061.97;10277083;28;19926;-82
2023/10/09 07:53:17;;;;;;;;;;;;;;;-144.32;100.00;68061.97;10283171;28;19926;-82
2023/10/09 07:58:24;;;;;;;;;;;;;;;-144.32;100.00;68061.97;10261204;28;20025;-82
2023/10/09 08:03:32;;;;;;;;;;;;;;;-144.32;100.00;68061.97;10262241;28;20036;-81
2023/10/09 08:24:49;;;;;;;;;;;;;;;-144.32;100.00;68061.97;10309931;28;19946;-82
2023/10/09 08:29:49;;;;;;;;;;;;;;;-144.32;100.00;68061.97;10283589;28;19930;-81
2023/10/09 08:34:53;;;;;;;;;;;;;;;-144.32;100.00;68061.97;10279990;28;19949;-82
2023/10/09 08:39:54;;;;;;;;;;;;;;;-144.32;100.00;68061.97;10286804;28;19969;-82
2023/10/09 08:45:00;;;;;;;;;;;;;;;-144.32;100.00;68061.97;10284848;28;19922;-81
2023/10/09 08:50:01;;;;;;;;;;;;;;;-144.32;100.00;68061.97;10218641;28;19926;-84
2023/10/09 08:55:01;;;;;;;;;;;;;;;-144.32;100.00;68061.97;10224516;28;19922;-82
2023/10/09 09:00:02;;;;;;;;;;;;;;;-144.32;100.00;68061.97;10220169;28;19946;-82
2023/10/09 09:05:19;;;;;;;;;;;;;;;-144.32;100.00;68061.97;10237507;28;19922;-82
2023/10/09 09:10:34;;;;;;;;;;;;;;;-144.32;100.00;68061.97;10221246;28;20107;-83
2023/10/09 09:15:39;;;;;;;;;;;;;;;-144.32;100.00;68061.97;10215854;28;20684;-80
2023/10/09 09:20:40;;;;;;;;;;;;;;;-144.32;100.00;68061.97;10233790;28;19933;-80
2023/10/09 09:25:47;;;;;;;;;;;;;;;-144.32;100.00;68061.97;10212878;28;20418;-80
2023/10/09 09:30:52;;;;;;;;;;;;;;;-144.32;100.00;68061.97;10234630;28;19926;-81
2023/10/09 09:36:13;;;;;;;;;;;;;;;-144.32;100.00;68061.97;10232072;28;20009;-80
2023/10/09 09:41:25;;;;;;;;;;;;;;;-144.32;100.00;68061.97;10229712;28;19973;-80
2023/10/09 09:46:33;;;;;;;;;;;;;;;-144.32;100.00;68061.97;10214583;28;19927;-78
2023/10/09 09:51:36;;;;;;;;;;;;;;;-144.32;100.00;68061.97;10232111;28;19926;-80
2023/10/09 09:56:39;;;;;;;;;;;;;;;-144.32;100.00;68061.97;10228889;28;20287;-80
2023/10/09 10:01:56;;;;;;;;;;;;;;;-144.32;100.00;68061.97;10231820;28;19923;-80
2023/10/09 10:07:00;;;;;;;;;;;;;;;-144.32;100.00;68061.97;10239580;28;19961;-85
2023/10/09 10:12:09;;;;;;;;;;;;;;;-144.32;100.00;68061.97;10239544;28;19926;-81
2023/10/09 10:17:21;;;;;;;;;;;;;;;-144.32;100.00;68061.97;10219724;28;19970;-84
2023/10/09 10:22:47;;;;;;;;;;;;;;;-144.32;100.00;68061.97;10211396;28;19972;-82
2023/10/09 10:28:38;;;;;;;;;;;;;;;-144.32;100.00;68061.97;10237962;28;19926;-82
2023/10/09 10:33:58;;;;;;;;;;;;;;;-144.32;100.00;68061.97;10160652;28;20446;-80
2023/10/09 10:39:04;;;;;;;;;;;;;;;-144.32;100.00;68061.97;10231672;28;19962;-81
2023/10/09 10:44:33;;;;;;;;;;;;;;;-144.32;100.00;68061.97;10202316;28;19937;-82
2023/10/09 10:49:37;;;;;;;;;;;;;;;-144.32;100.00;68061.97;10219884;28;19982;-83
2023/10/09 10:59:41;;;;;;;;;;;;;;;-144.32;100.00;68061.97;10225316;28;20018;-79
2023/10/09 11:04:53;;;;;;;;;;;;;;;-144.32;100.00;68061.97;10226948;28;19975;-79
2023/10/09 11:20:32;;;;;;;;;;;;;;;-144.32;100.00;68061.97;10211121;28;19926;-81
2023/10/09 11:25:50;;;;;;;;;;;;;;;-144.32;100.00;68061.97;10228351;28;19977;-82
2023/10/09 11:30:55;;;;;;;;;;;;;;;-144.32;100.00;68061.97;10200073;28;19930;-80
2023/10/09 11:35:58;;;;;;;;;;;;;;;-144.32;100.00;68061.97;10213917;28;19981;-80
2023/10/09 11:41:18;;;;;;;;;;;;;;;-144.32;100.00;68061.97;10212677;28;19962;-83
2023/10/09 11:52:03;;;;;;;;;;;;;;;-144.32;100.00;68061.97;10251331;28;19937;-81
2023/10/09 11:57:00;;;;;;;;;;;;;;;-144.32;100.00;68061.97;10236307;28;19923;-82
2023/10/09 12:02:03;;;;;;;;;;;;;;;-144.32;100.00;68061.97;10211416;28;19927;-81
2023/10/09 12:07:09;;;;;;;;;;;;;;;-144.32;100.00;68061.97;10199641;28;19934;-80
2023/10/09 12:12:09;;;;;;;;;;;;;;;-144.32;100.00;68061.97;10221382;28;19926;-79
2023/10/09 12:17:10;;;;;;;;;;;;;;;-144.32;100.00;68061.97;10232916;28;19926;-78
2023/10/09 12:22:17;;;;;;;;;;;;;;;-144.32;100.00;68061.97;10225854;28;19926;-83
2023/10/09 12:27:20;;;;;;;;;;;;;;;-144.32;100.00;68061.97;10246399;28;20467;-82
2023/10/09 12:32:27;;;;;;;;;;;;;;;-144.32;100.00;68061.97;10236901;28;20947;-82
2023/10/09 12:37:31;;;;;;;;;;;;;;;-144.32;100.00;68061.97;10245985;28;19942;-83
2023/10/09 12:47:40;;;;;;;;;;;;;;;-144.32;100.00;68061.97;10190392;29;19937;-84
2023/10/09 12:52:43;;;;;;;;;;;;;;;-144.32;100.00;68061.97;10201875;29;19949;-79
2023/10/09 12:57:48;;;;;;;;;;;;;;;-144.32;100.00;68061.97;10181393;29;19926;-80
2023/10/09 13:02:48;;;;;;;;;;;;;;;-144.32;100.00;68061.97;10178892;28;19927;-78
2023/10/09 13:07:48;;;;;;;;;;;;;;;-144.32;100.00;68061.97;10172103;29;19927;-81
2023/10/09 13:12:55;;;;;;;;;;;;;;;-144.32;100.00;68061.97;10200764;29;19937;-77
2023/10/09 13:17:55;;;;;;;;;;;;;;;-144.32;100.00;68061.97;10190187;29;19927;-80
2023/10/09 13:22:57;;;;;;;;;;;;;;;-144.32;100.00;68061.97;10195183;29;19930;-79
2023/10/09 13:28:03;;;;;;;;;;;;;;;-144.32;100.00;68061.97;10190369;29;19927;-80
2023/10/09 13:33:05;;;;;;;;;;;;;;;-144.32;100.00;68061.97;10183748;29;20300;-79
2023/10/09 13:38:09;;;;;;;;;;;;;;;-144.32;100.00;68061.97;10182974;29;20027;-81
2023/10/09 13:43:16;;;;;;;;;;;;;;;-144.32;100.00;68061.97;10182206;29;19938;-79
2023/10/09 13:48:17;;;;;;;;;;;;;;;-144.32;100.00;68061.97;10191409;29;19931;-80
2023/10/09 13:53:18;;;;;;;;;;;;;;;-144.32;100.00;68061.97;10189403;29;20528;-79
2023/10/09 13:58:20;;;;;;;;;;;;;;;-144.32;100.00;68061.97;10186746;29;19938;-78
2023/10/09 14:03:24;;;;;;;;;;;;;;;-144.32;100.00;68061.97;10203389;29;19930;-80
2023/10/09 14:08:26;;;;;;;;;;;;;;;-144.32;100.00;68061.97;10191830;29;19926;-81
2023/10/09 14:13:28;;;;;;;;;;;;;;;-144.32;100.00;68061.97;10170267;29;19931;-81
2023/10/09 14:18:29;;;;;;;;;;;;;;;-144.32;100.00;68061.97;10182850;28;20512;-81
2023/10/09 14:23:34;;;;;;;;;;;;;;;-144.32;100.00;68061.97;10186741;29;19926;-81
2023/10/09 14:28:35;;;;;;;;;;;;;;;-144.32;100.00;68061.97;10181160;29;20379;-81
2023/10/09 14:33:36;;;;;;;;;;;;;;;-144.32;100.00;68061.97;10182932;29;19927;-79
2023/10/09 14:38:38;;;;;;;;;;;;;;;-144.32;100.00;68061.97;10183998;29;19926;-84
2023/10/09 14:43:39;;;;;;;;;;;;;;;-144.32;100.00;68061.97;10183775;29;20362;-82
2023/10/09 14:48:41;;;;;;;;;;;;;;;-144.32;100.00;68061.97;10169280;28;19927;-80
2023/10/09 14:53:41;;;;;;;;;;;;;;;-144.32;100.00;68061.97;10175561;29;20383;-81
2023/10/09 14:58:42;;;;;;;;;;;;;;;-144.32;100.00;68061.97;10204559;28;19934;-80
2023/10/09 15:03:43;;;;;;;;;;;;;;;-144.32;100.00;68061.97;10165090;29;19926;-80
2023/10/09 15:08:46;;;;;;;;;;;;;;;-144.32;100.00;68061.97;10201396;28;19978;-80
2023/10/09 15:13:47;;;;;;;;;;;;;;;-144.32;100.00;68061.97;10169181;29;20444;-79
2023/10/09 15:18:52;;;;;;;;;;;;;;;-144.32;100.00;68061.97;10157420;29;19931;-80
2023/10/09 15:23:56;;;;;;;;;;;;;;;-144.32;100.00;68061.97;10177519;29;20070;-79
2023/10/09 15:29:06;;;;;;;;;;;;;;;-144.32;100.00;68061.97;10187863;29;19951;-79
2023/10/09 15:34:08;;;;;;;;;;;;;;;-144.32;100.00;68061.97;10163153;29;19979;-79
2023/10/09 15:39:11;;;;;;;;;;;;;;;-144.32;100.00;68061.97;10174119;28;20388;-80
2023/10/09 15:44:13;;;;;;;;;;;;;;;-144.32;100.00;68061.97;10187070;29;20010;-79
2023/10/09 15:49:16;;;;;;;;;;;;;;;-144.32;100.00;68061.97;10177374;29;19964;-78
2023/10/09 15:54:19;;;;;;;;;;;;;;;-144.32;100.00;68061.97;10170738;29;20049;-80
2023/10/09 15:59:20;;;;;;;;;;;;;;;-144.32;100.00;68061.97;10186439;29;20084;-78
2023/10/09 16:04:20;;;;;;;;;;;;;;;-144.32;100.00;68061.97;10198551;29;20456;-78
2023/10/09 16:09:21;;;;;;;;;;;;;;;-144.32;100.00;68061.97;10191222;29;19927;-80
2023/10/09 16:14:23;;;;;;;;;;;;;;;-144.32;100.00;68061.97;10199806;29;19945;-79
2023/10/09 16:19:28;;;;;;;;;;;;;;;-144.32;100.00;68061.97;10186860;29;19970;-84
2023/10/09 16:24:34;;;;;;;;;;;;;;;-144.32;100.00;68061.97;10188330;28;19931;-81
2023/10/09 16:29:36;;;;;;;;;;;;;;;-144.32;100.00;68061.97;10189743;29;20683;-84
2023/10/09 16:34:38;;;;;;;;;;;;;;;-144.32;100.00;68061.97;10193538;29;19926;-83
2023/10/09 16:39:42;;;;;;;;;;;;;;;-144.32;100.00;68061.97;10231772;28;19981;-84
2023/10/09 16:44:46;;;;;;;;;;;;;;;-144.32;100.00;68061.97;10245238;28;20021;-81
2023/10/09 16:49:51;;;;;;;;;;;;;;;-144.32;100.00;68061.97;10237088;28;19962;-80
2023/10/09 16:54:51;;;;;;;;;;;;;;;-144.32;100.00;68061.97;10235203;28;19970;-79
2023/10/09 16:59:55;;;;;;;;;;;;;;;-144.32;100.00;68061.97;10249334;28;19994;-81
2023/10/09 17:04:55;;;;;;;;;;;;;;;-144.32;100.00;68061.97;10250115;28;20097;-80
2023/10/09 17:09:58;;;;;;;;;;;;;;;-144.32;100.00;68061.97;10284333;28;19965;-83
2023/10/09 17:14:59;;;;;;;;;;;;;;;-144.32;100.00;68061.97;10285849;28;19926;-81
2023/10/09 17:20:10;;;;;;;;;;;;;;;-144.32;100.00;68061.97;10239998;28;20351;-84
2023/10/09 17:25:12;;;;;;;;;;;;;;;-144.32;100.00;68061.97;10221198;28;19950;-81
2023/10/09 17:30:15;;;;;;;;;;;;;;;-144.32;100.00;68061.97;10215504;28;19981;-82
2023/10/09 17:35:17;;;;;;;;;;;;;;;-144.32;100.00;68061.97;10235618;28;19926;-80
2023/10/09 17:40:19;;;;;;;;;;;;;;;-144.32;100.00;68061.97;10234050;28;20801;-80
2023/10/09 17:45:24;;;;;;;;;;;;;;;-144.32;100.00;68061.97;10233623;28;20037;-82
2023/10/09 17:50:24;;;;;;;;;;;;;;;-144.32;100.00;68061.97;10269388;28;19960;-82
2023/10/09 17:55:28;;;;;;;;;;;;;;;-144.32;100.00;68061.97;10229530;28;19934;-82
2023/10/09 18:00:28;;;;;;;;;;;;;;;-144.32;100.00;68061.97;10236598;28;19930;-82
2023/10/09 18:05:33;;;;;;;;;;;;;;;-144.32;100.00;68061.97;10257801;28;19926;-84
2023/10/09 18:10:41;;;;;;;;;;;;;;;-144.32;100.00;68061.97;10250577;28;19926;-84
2023/10/09 18:15:46;;;;;;;;;;;;;;;-144.32;100.00;68061.97;10240401;28;19990;-83
2023/10/09 18:20:49;;;;;;;;;;;;;;;-144.32;100.00;68061.97;10212647;28;19937;-81
2023/10/09 18:25:58;;;;;;;;;;;;;;;-144.32;100.00;68061.97;10248552;28;19933;-81
2023/10/09 18:30:58;;;;;;;;;;;;;;;-144.32;100.00;68061.97;10229349;28;19927;-83
2023/10/09 18:36:03;;;;;;;;;;;;;;;-144.32;100.00;68061.97;10233288;28;19947;-87
2023/10/09 18:41:06;;;;;;;;;;;;;;;-144.32;100.00;68061.97;10239025;28;19942;-82
2023/10/09 18:46:10;;;;;;;;;;;;;;;-144.32;100.00;68061.97;10252240;28;19937;-79
2023/10/09 18:51:17;;;;;;;;;;;;;;;-144.32;100.00;68061.97;10241943;28;19926;-83
2023/10/09 18:56:22;;;;;;;;;;;;;;;-144.32;100.00;68061.97;10238048;28;20121;-81
2023/10/09 19:01:25;;;;;;;;;;;;;;;-144.32;100.00;68061.97;10225412;28;20663;-81
2023/10/09 19:06:31;;;;;;;;;;;;;;;-144.32;100.00;68061.97;10212315;28;20008;-82
2023/10/09 19:11:34;;;;;;;;;;;;;;;-144.32;100.00;68061.97;10239225;28;19944;-81
2023/10/09 19:16:35;;;;;;;;;;;;;;;-144.32;100.00;68061.97;10216755;28;19933;-81
2023/10/09 19:21:37;;;;;;;;;;;;;;;-144.32;100.00;68061.97;10231836;28;19926;-82
2023/10/09 19:26:41;;;;;;;;;;;;;;;-144.32;100.00;68061.97;10223298;28;20025;-81
2023/10/09 19:31:42;;;;;;;;;;;;;;;-144.32;100.00;68061.97;10233967;28;19923;-81
2023/10/09 19:36:46;;;;;;;;;;;;;;;-144.32;100.00;68061.97;10219298;28;19927;-86
2023/10/09 19:41:46;;;;;;;;;;;;;;;-144.32;100.00;68061.97;10210825;28;19927;-83
2023/10/09 19:46:47;;;;;;;;;;;;;;;-144.32;100.00;68061.97;10240564;28;19923;-81
2023/10/09 19:51:49;;;;;;;;;;;;;;;-144.32;100.00;68061.97;10192333;28;20512;-82
2023/10/09 19:56:49;;;;;;;;;;;;;;;-144.32;100.00;68061.97;10229999;28;19937;-83
2023/10/09 20:01:51;;;;;;;;;;;;;;;-144.32;100.00;68061.97;10252980;28;20655;-85
2023/10/09 20:06:51;;;;;;;;;;;;;;;-144.32;100.00;68061.97;10288014;28;19993;-84
2023/10/09 20:11:53;;;;;;;;;;;;;;;-144.32;100.00;68061.97;10263371;28;19930;-81
2023/10/09 20:16:53;;;;;;;;;;;;;;;-144.32;100.00;68061.97;10236061;28;19937;-81
2023/10/09 20:21:55;;;;;;;;;;;;;;;-144.32;100.00;68061.97;10230142;28;20062;-80
2023/10/09 20:26:55;;;;;;;;;;;;;;;-144.32;100.00;68061.97;10219337;28;19929;-80
2023/10/09 20:31:56;;;;;;;;;;;;;;;-144.32;100.00;68061.97;10230284;28;20395;-80
2023/10/09 20:36:57;;;;;;;;;;;;;;;-144.32;100.00;68061.97;10228244;28;19961;-80
2023/10/09 20:41:57;;;;;;;;;;;;;;;-144.32;100.00;68061.97;10233657;28;20029;-82
2023/10/09 20:46:59;;;;;;;;;;;;;;;-144.32;100.00;68061.97;10240490;28;19927;-82
2023/10/09 20:52:01;;;;;;;;;;;;;;;-144.32;100.00;68061.97;10239957;28;20391;-81
2023/10/09 20:57:01;;;;;;;;;;;;;;;-144.32;100.00;68061.97;10233472;28;19933;-83
2023/10/09 21:02:06;;;;;;;;;;;;;;;-144.32;100.00;68061.97;10229494;28;20405;-81
2023/10/09 21:07:06;;;;;;;;;;;;;;;-144.32;100.00;68061.97;10220780;28;19926;-83
2023/10/09 21:12:08;;;;;;;;;;;;;;;-144.32;100.00;68061.97;10225786;28;19958;-81
2023/10/09 21:17:15;;;;;;;;;;;;;;;-144.32;100.00;68061.97;10223576;28;19934;-82
2023/10/09 21:22:17;;;;;;;;;;;;;;;-144.32;100.00;68061.97;10231280;28;19969;-77
2023/10/09 21:27:17;;;;;;;;;;;;;;;-144.32;100.00;68061.97;10231759;28;20401;-79
2023/10/09 21:32:18;;;;;;;;;;;;;;;-144.32;100.00;68061.97;10229056;28;19966;-82
2023/10/09 21:37:19;;;;;;;;;;;;;;;-144.32;100.00;68061.97;10225502;28;19930;-81
2023/10/09 21:42:19;;;;;;;;;;;;;;;-144.32;100.00;68061.97;10212805;28;19931;-83
2023/10/09 21:47:21;;;;;;;;;;;;;;;-144.32;100.00;68061.97;10234077;28;19930;-80
2023/10/09 21:52:22;;;;;;;;;;;;;;;-144.32;100.00;68061.97;10225813;28;20394;-80
2023/10/09 21:57:22;;;;;;;;;;;;;;;-144.32;100.00;68061.97;10205601;28;19981;-80
2023/10/09 22:02:22;;;;;;;;;;;;;;;-144.32;100.00;68061.97;10228252;28;19927;-81
2023/10/09 22:07:25;;;;;;;;;;;;;;;-144.32;100.00;68061.97;10213192;28;20311;-79
2023/10/09 22:12:26;;;;;;;;;;;;;;;-144.32;100.00;68061.97;10210544;28;19934;-80
2023/10/09 22:17:28;;;;;;;;;;;;;;;-144.32;100.00;68061.97;10231260;28;20276;-83
2023/10/09 22:22:32;;;;;;;;;;;;;;;-144.32;100.00;68061.97;10237850;28;19958;-81
2023/10/09 22:27:35;;;;;;;;;;;;;;;-144.32;100.00;68061.97;10229682;28;19929;-85
2023/10/09 22:32:36;;;;;;;;;;;;;;;-144.32;100.00;68061.97;10230971;28;19926;-80
2023/10/09 22:37:37;;;;;;;;;;;;;;;-144.32;100.00;68061.97;10233999;28;20143;-82
2023/10/09 22:42:38;;;;;;;;;;;;;;;-144.32;100.00;68061.97;10238992;28;19922;-79
2023/10/09 22:47:42;;;;;;;;;;;;;;;-144.32;100.00;68061.97;10214503;28;20666;-80
2023/10/09 22:52:45;;;;;;;;;;;;;;;-144.32;100.00;68061.97;10220383;28;20057;-80
2023/10/09 22:57:46;;;;;;;;;;;;;;;-144.32;100.00;68061.97;10225283;28;19923;-81
2023/10/09 23:02:56;;;;;;;;;;;;;;;-144.32;100.00;68061.97;10228902;28;19926;-80
2023/10/09 23:08:00;;;;;;;;;;;;;;;-144.32;100.00;68061.97;10200900;28;19929;-80
2023/10/09 23:13:14;;;;;;;;;;;;;;;-144.32;100.00;68061.97;10233867;28;20020;-82
2023/10/09 23:18:32;;;;;;;;;;;;;;;-144.32;100.00;68061.97;10239544;28;20416;-81
2023/10/09 23:23:36;;;;;;;;;;;;;;;-144.32;100.00;68061.97;10246902;28;20291;-81
2023/10/09 23:28:37;;;;;;;;;;;;;;;-144.32;100.00;68061.97;10233580;28;19950;-78
2023/10/09 23:33:38;;;;;;;;;;;;;;;-144.32;100.00;68061.97;10207967;28;19930;-79
2023/10/09 23:39:09;;;;;;;;;;;;;;;-144.32;100.00;68061.97;10230399;28;20537;-79
2023/10/09 23:43:59;;;;;;;;;;;;;;;-144.32;100.00;68061.97;10224229;28;19926;-78
2023/10/09 23:49:00;;;;;;;;;;;;;;;-144.32;100.00;68061.97;10223937;28;19926;-78
2023/10/09 23:54:10;;;;;;;;;;;;;;;-144.32;100.00;68061.97;10202842;28;19931;-83
2023/10/09 23:59:13;;;;;;;;;;;;;;;-144.32;100.00;68061.97;10224667;28;19945;-79
